Terminal Aerodrome Forecast
Issued by NWS Sioux Falls, SD

Home | Current Version | Previous Version | Graphics & Text | Print | Product List | Glossary Off
Versions: 1 2 3 4 5 6 7 8 9 10 11 12 13 14 15 16 17 18 19 20 21 22 23 24 25 26 27 28 29

000
FTUS43 KFSD 030930 AAA
TAFSUX
TAF AMD
KSUX 030930Z 0310/0406 21007KT 6SM -RA SCT035 OVC100
     FM031130 07009KT P6SM SCT025 BKN100
     FM032000 VRB05KT P6SM SCT050 SCT200=

USA.gov is the U.S. government's official web portal to all federal, state and local government web resources and services.